Private Wetterstation Nrnberg - Katzwang
Wetterdaten: April 2014
Datum Temp. A. Feuchte A. Luftdruck Regen Wind Richtung Taupunkt Windchill Windben
01.04.2014 12,4 C 63 % 1009 hPa 0,0 l/m 2,1 km/h O-NO 5,2 C 12,4 C 3,1 km/h
02.04.2014 13,5 C 60 % 1005 hPa 0,0 l/m 2,0 km/h NO 5,4 C 13,4 C 3,0 km/h
03.04.2014 14,9 C 58 % 1003 hPa 0,0 l/m 1,5 km/h NO 6,1 C 14,9 C 2,5 km/h
04.04.2014 15,4 C 60 % 1004 hPa 0,5 l/m 3,1 km/h O 7,1 C 15,0 C 4,1 km/h
05.04.2014 13,9 C 71 % 1011 hPa 0,0 l/m 3,1 km/h W-NW 8,5 C 13,9 C 4,1 km/h
06.04.2014 13,6 C 69 % 1016 hPa 0,0 l/m 4,9 km/h W-NW 7,8 C 12,8 C 5,9 km/h
07.04.2014 16,4 C 61 % 1014 hPa 0,0 l/m 3,1 km/h NO 8,3 C 16,4 C 4,1 km/h
08.04.2014 12,6 C 58 % 1015 hPa 0,5 l/m 2,9 km/h W-NW 4,4 C 12,6 C 3,9 km/h
09.04.2014 9,1 C 58 % 1021 hPa 0,0 l/m 2,2 km/h W-NW 1,1 C 8,7 C 3,2 km/h
10.04.2014 10,5 C 73 % 1018 hPa 0,5 l/m 2,7 km/h W-NW 5,8 C 10,3 C 3,7 km/h
11.04.2014 10,6 C 70 % 1015 hPa 0,0 l/m 1,5 km/h O 5,3 C 10,6 C 2,5 km/h
12.04.2014 13,0 C 63 % 1013 hPa 0,0 l/m 1,5 km/h O 5,8 C 13,0 C 2,5 km/h
13.04.2014 13,5 C 53 % 1015 hPa 0,0 l/m 2,4 km/h W-NW 3,7 C 13,3 C 3,4 km/h
14.04.2014 8,9 C 65 % 1013 hPa 0,5 l/m 2,2 km/h W-NW 2,7 C 8,6 C 3,2 km/h
15.04.2014 5,8 C 65 % 1020 hPa 0,0 l/m 4,6 km/h NW -0,3 C 4,8 C 5,6 km/h
16.04.2014 6,7 C 63 % 1025 hPa 0,0 l/m 1,2 km/h N-NO -0,0 C 6,7 C 2,2 km/h
17.04.2014 8,7 C 51 % 1017 hPa 0,0 l/m 5,8 km/h NO -1,5 C 7,8 C 6,8 km/h
18.04.2014 6,2 C 74 % 1009 hPa 2,6 l/m 1,7 km/h N 2,0 C 6,2 C 2,7 km/h
19.04.2014 10,9 C 72 % 1008 hPa 0,0 l/m 9,6 km/h NO 5,8 C 8,7 C 11,3 km/h
20.04.2014 13,3 C 64 % 1004 hPa 0,0 l/m 4,4 km/h O 6,4 C 12,3 C 7,7 km/h
21.04.2014 12,2 C 70 % 1003 hPa 0,0 l/m 1,0 km/h O-NO 6,5 C 12,2 C 2,0 km/h
22.04.2014 13,1 C 67 % 1011 hPa 0,0 l/m 0,0 km/h W-NW 6,9 C 13,1 C 1,0 km/h
23.04.2014 14,7 C 59 % 1016 hPa 0,0 l/m 1,0 km/h N-NO 6,2 C 14,7 C 2,0 km/h
24.04.2014 16,1 C 58 % 1014 hPa 0,0 l/m 8,1 km/h O 7,4 C 14,6 C 9,1 km/h
25.04.2014 17,3 C 60 % 1008 hPa 0,0 l/m 3,1 km/h O 9,2 C 16,9 C 4,1 km/h
26.04.2014 16,9 C 67 % 1007 hPa 0,0 l/m 1,7 km/h W-NW 10,4 C 16,9 C 2,7 km/h
27.04.2014 11,2 C 81 % 1006 hPa 11,9 l/m 2,0 km/h W-NW 8,1 C 10,9 C 3,0 km/h
28.04.2014 11,9 C 81 % 1007 hPa 0,5 l/m 0,0 km/h W-NW 8,6 C 11,9 C 1,0 km/h
29.04.2014 14,0 C 79 % 1008 hPa 0,5 l/m 0,0 km/h W-NW 10,3 C 14,0 C 1,0 km/h
30.04.2014 14,7 C 72 % 1007 hPa 0,0 l/m 2,4 km/h O-NO 9,7 C 14,4 C 3,4 km/h
Min-Datum 17.04.14 17.04.14 21.04.14 8 Tage 01.04.14 - 17.04.14 15.04.14 01.04.14
Min-Zeit 06:40 15:20 13:50 - 00:00 - 06:40 04:30 00:00
Minimum -1,4 C 33 % 1001 hPa - 0,0 km/h - -4,9 C -4,1 C 1,0 km/h
Max-Datum 24.04.14 19.04.14 16.04.14 27.04.14 20.04.14 - 26.04.14 24.04.14 14.04.14
Max-Zeit 15:10 05:20 08:00 18:30 16:10 - 14:40 15:10 11:50
Maximum 25,6 C 83 % 1026 hPa 11,9 l/m 37,6 km/h
O
- 13,6 C 25,5 C 87,9 km/h
W-NW
Durchschnitt 12,4 C 65 % 1011 hPa #17,6 l/m 2,7 km/h W-NW 5,8 C 12,1 C 3,8 km/h

Durchschnitt Minimum Temp.6,7 C
Durchschnitt Maximum Temp.18,5 C